Time;durP1;ratioP1;P1;durP2;ratioP2;P2;SDS_P1;SDS_P2;PMS_P1;PMS_P2;Temp;Humidity;BMP_temperature;BMP_pressure;BME280_temperature;BME280_humidity;BME280_pressure;Samples;Min_cycle;Max_cycle;Signal;HPM_P1;HPM_P2
2023/08/03 00:01:35;;;;;;;26.60;18.55;;;;;;;20.34;100.00;98752.03;5067141;28;20511;-49
2023/08/03 00:04:01;;;;;;;26.50;18.80;;;;;;;20.34;100.00;98757.31;5069367;28;20416;-47
2023/08/03 00:06:30;;;;;;;25.40;18.75;;;;;;;20.31;100.00;98758.41;5067575;28;20046;-46
2023/08/03 00:08:55;;;;;;;;;;;;;;;20.28;100.00;98751.56;5066111;28;20051;-44
2023/08/03 00:11:21;;;;;;;27.17;18.77;;;;;;;20.08;100.00;98720.00;5064490;28;19920;-44
2023/08/03 00:13:47;;;;;;;22.70;17.77;;;;;;;20.19;100.00;98738.38;5076149;28;20568;-48
2023/08/03 00:16:13;;;;;;;22.88;17.98;;;;;;;20.20;100.00;98738.22;5062102;28;20044;-46
2023/08/03 00:18:39;;;;;;;21.65;17.50;;;;;;;20.20;100.00;98743.47;5064926;28;20063;-45
2023/08/03 00:21:05;;;;;;;26.08;18.58;;;;;;;20.20;100.00;98737.41;5068392;28;20048;-50
2023/08/03 00:23:31;;;;;;;27.27;18.77;;;;;;;20.18;100.00;98734.88;5067937;28;20044;-47
2023/08/03 00:25:57;;;;;;;25.17;18.83;;;;;;;20.17;100.00;98733.22;5067804;28;20108;-44
2023/08/03 00:28:23;;;;;;;24.52;18.20;;;;;;;20.16;100.00;98731.53;5064047;28;20128;-48
2023/08/03 00:30:49;;;;;;;23.42;17.42;;;;;;;20.16;100.00;98728.91;5067124;28;20048;-45
2023/08/03 00:33:15;;;;;;;26.55;18.25;;;;;;;20.16;100.00;98736.81;5072022;28;20047;-47
2023/08/03 00:35:41;;;;;;;26.08;18.23;;;;;;;20.15;100.00;98729.06;5067320;28;20139;-44
2023/08/03 00:38:07;;;;;;;22.33;18.65;;;;;;;20.00;100.00;98710.13;5068164;28;20527;-44
2023/08/03 00:40:33;;;;;;;24.52;18.60;;;;;;;20.13;100.00;98733.63;5066161;28;20091;-43
2023/08/03 00:43:04;;;;;;;23.67;18.05;;;;;;;20.05;100.00;98734.28;5047254;28;20041;-45
2023/08/03 00:45:38;;;;;;;23.60;17.80;;;;;;;19.93;100.00;98719.56;5049780;28;20044;-48
2023/08/03 00:48:04;;;;;;;26.67;18.52;;;;;;;20.07;100.00;98742.91;5015735;28;20091;-46
2023/08/03 00:50:30;;;;;;;27.65;18.95;;;;;;;20.06;100.00;98743.03;5056282;28;20094;-45
2023/08/03 00:52:56;;;;;;;29.33;18.92;;;;;;;20.05;100.00;98726.38;5061769;28;20040;-46
2023/08/03 00:55:22;;;;;;;23.88;18.33;;;;;;;20.07;100.00;98726.25;5070935;28;20416;-45
2023/08/03 00:57:48;;;;;;;28.40;18.77;;;;;;;20.03;100.00;98719.56;5069017;28;20098;-47
2023/08/03 01:00:14;;;;;;;23.70;18.15;;;;;;;20.05;100.00;98736.09;5070325;28;20040;-45
2023/08/03 01:02:42;;;;;;;22.45;18.30;;;;;;;20.00;100.00;98736.50;5053766;28;20044;-46
2023/08/03 01:05:08;;;;;;;23.77;18.42;;;;;;;19.94;100.00;98723.03;5065765;28;20068;-45
2023/08/03 01:07:36;;;;;;;24.15;17.90;;;;;;;20.00;100.00;98735.66;5065253;28;20124;-45
2023/08/03 01:10:02;;;;;;;24.40;18.10;;;;;;;19.99;100.00;98734.00;5070674;28;20041;-51
2023/08/03 01:12:32;;;;;;;28.98;19.02;;;;;;;19.98;100.00;98733.19;5072261;28;20040;-44
2023/08/03 01:14:58;;;;;;;24.60;18.60;;;;;;;19.83;100.00;98708.16;5069949;28;20110;-45
2023/08/03 01:17:25;;;;;;;28.27;18.50;;;;;;;20.00;100.00;98738.31;5071599;28;20052;-44
2023/08/03 01:19:51;;;;;;;26.65;18.05;;;;;;;19.98;100.00;98738.47;5071241;28;20455;-47
2023/08/03 01:22:18;;;;;;;23.75;18.77;;;;;;;19.72;100.00;98697.69;5062617;28;20041;-45
2023/08/03 01:24:44;;;;;;;26.20;18.67;;;;;;;19.95;100.00;98743.97;5048285;28;20575;-45
2023/08/03 01:27:10;;;;;;;31.02;20.02;;;;;;;19.94;100.00;98742.31;5071610;28;20079;-46
2023/08/03 01:29:36;;;;;;;27.55;19.30;;;;;;;19.96;100.00;98747.47;5069265;28;20040;-47
2023/08/03 01:32:02;;;;;;;26.75;18.48;;;;;;;19.94;100.00;98749.41;5071400;28;20051;-44
2023/08/03 01:34:28;;;;;;;23.08;18.15;;;;;;;19.83;100.00;98731.88;5071125;28;20412;-44
2023/08/03 01:36:55;;;;;;;27.65;19.45;;;;;;;19.66;100.00;98699.06;5075612;28;20063;-45
2023/08/03 01:39:24;;;;;;;26.63;19.23;;;;;;;19.95;100.00;98743.16;5051722;28;20140;-44
2023/08/03 01:41:50;;;;;;;25.60;19.30;;;;;;;19.93;100.00;98743.31;5069378;28;20090;-47
2023/08/03 01:44:29;;;;;;;25.65;19.10;;;;;;;19.89;100.00;98748.00;5076088;28;20036;-42
2023/08/03 01:46:59;;;;;;;24.25;18.25;;;;;;;19.89;100.00;98748.00;5067240;28;20072;-44
2023/08/03 01:49:26;;;;;;;;;;;;;;;19.93;100.00;98753.84;5076794;28;20087;-46
2023/08/03 01:51:52;;;;;;;26.15;18.48;;;;;;;19.89;100.00;98755.91;5065012;28;19947;-45
2023/08/03 01:54:18;;;;;;;25.52;18.48;;;;;;;19.91;100.00;98757.59;5071396;28;20037;-44
2023/08/03 01:56:44;;;;;;;25.90;18.15;;;;;;;19.92;100.00;98756.63;5048996;28;20048;-45
2023/08/03 01:59:10;;;;;;;28.08;18.88;;;;;;;19.97;100.00;98754.41;5053375;28;20039;-44
2023/08/03 02:01:37;;;;;;;25.65;18.50;;;;;;;20.00;100.00;98757.59;5070239;28;20040;-44
2023/08/03 02:04:03;;;;;;;24.55;18.23;;;;;;;20.04;100.00;98763.47;5073236;28;20047;-46
2023/08/03 02:06:30;;;;;;;23.92;18.25;;;;;;;20.06;100.00;98751.78;5053063;28;20093;-43
2023/08/03 02:08:56;;;;;;;27.05;19.10;;;;;;;20.07;100.00;98755.28;5050659;28;20496;-45
2023/08/03 02:11:26;;;;;;;28.00;18.30;;;;;;;20.05;100.00;98758.03;5055985;28;20037;-44
2023/08/03 02:13:53;;;;;;;24.42;17.42;;;;;;;20.06;100.00;98761.50;5066788;28;20094;-44
2023/08/03 02:16:19;;;;;;;24.85;17.55;;;;;;;20.06;100.00;98766.78;5052331;28;20504;-45
2023/08/03 02:18:45;;;;;;;26.33;18.17;;;;;;;20.07;100.00;98779.03;5067492;28;20049;-44
2023/08/03 02:21:11;;;;;;;21.60;17.92;;;;;;;20.07;100.00;98779.03;5088686;28;20049;-48
2023/08/03 02:23:37;;;;;;;24.48;19.00;;;;;;;20.06;100.00;98772.06;5073832;28;20495;-45
2023/08/03 02:26:03;;;;;;;26.13;17.38;;;;;;;19.77;100.00;98721.88;5059134;28;20098;-44
2023/08/03 02:28:30;;;;;;;27.20;17.52;;;;;;;20.08;100.00;98785.97;5052413;28;20044;-43
2023/08/03 02:30:57;;;;;;;28.55;17.92;;;;;;;20.06;100.00;98788.75;5048719;28;20456;-47
2023/08/03 02:33:26;;;;;;;26.75;18.20;;;;;;;20.07;100.00;98789.56;5058580;28;20049;-44
2023/08/03 02:35:52;;;;;;;25.48;17.38;;;;;;;20.08;100.00;98792.09;5070719;28;20106;-48
2023/08/03 02:38:18;;;;;;;21.92;17.05;;;;;;;20.10;100.00;98791.94;5083974;28;20041;-44
2023/08/03 02:40:45;;;;;;;23.05;17.38;;;;;;;20.11;100.00;98799.72;5085584;28;20123;-46
2023/08/03 02:43:12;;;;;;;23.58;16.92;;;;;;;20.12;100.00;98784.72;5057953;28;20045;-44
2023/08/03 02:45:42;;;;;;;25.52;17.98;;;;;;;20.17;100.00;98788.63;5057430;28;20036;-44
2023/08/03 02:48:08;;;;;;;21.80;16.13;;;;;;;20.19;100.00;98793.78;5041163;28;20037;-44
2023/08/03 02:50:34;;;;;;;25.85;17.08;;;;;;;20.22;100.00;98786.44;5053523;28;20504;-44
2023/08/03 02:53:04;;;;;;;22.95;16.92;;;;;;;20.26;100.00;98789.63;5068698;28;20047;-46
2023/08/03 02:55:31;;;;;;;23.25;16.58;;;;;;;20.30;100.00;98791.03;5080210;28;20051;-45
2023/08/03 02:57:58;;;;;;;24.45;16.42;;;;;;;20.41;100.00;98788.28;5068136;28;20043;-44
2023/08/03 03:00:25;;;;;;;27.35;18.48;;;;;;;20.53;100.00;98791.66;5065105;28;20075;-44
2023/08/03 03:02:52;;;;;;;23.55;16.58;;;;;;;20.67;100.00;98793.91;5052022;28;20068;-45
2023/08/03 03:05:24;;;;;;;21.88;16.67;;;;;;;20.80;100.00;98783.91;5068950;28;20044;-45
2023/08/03 03:07:50;;;;;;;21.63;16.30;;;;;;;20.70;100.00;98754.84;5068646;28;20045;-46
2023/08/03 03:10:17;;;;;;;19.48;15.93;;;;;;;20.86;100.00;98764.00;5068264;28;20047;-45
2023/08/03 03:12:43;;;;;;;20.42;15.07;;;;;;;21.10;100.00;98793.47;5067866;28;20044;-45
2023/08/03 03:15:10;;;;;;;20.58;15.68;;;;;;;21.18;100.00;98798.09;5069587;28;20044;-43
2023/08/03 03:17:38;;;;;;;20.05;15.43;;;;;;;21.19;100.00;98775.97;5065702;28;20056;-42
2023/08/03 03:20:05;;;;;;;22.85;14.15;;;;;;;21.45;100.00;98804.31;5079975;28;20040;-44
2023/08/03 03:22:32;;;;;;;19.65;14.27;;;;;;;21.54;100.00;98798.16;5047933;28;20560;-46
2023/08/03 03:24:58;;;;;;;19.35;14.05;;;;;;;21.55;100.00;98801.66;5053081;28;20132;-45
2023/08/03 03:27:24;;;;;;;18.33;13.93;;;;;;;21.52;100.00;98805.41;5088867;28;20028;-45
2023/08/03 03:29:54;;;;;;;19.25;14.65;;;;;;;21.52;100.00;98800.13;5087948;28;20040;-43
2023/08/03 03:32:20;;;;;;;20.55;14.02;;;;;;;21.60;100.00;98793.28;5072051;28;20530;-43
2023/08/03 03:34:46;;;;;;;20.25;13.48;;;;;;;21.70;99.51;98791.44;5087216;28;20036;-45
2023/08/03 03:37:14;;;;;;;19.93;12.80;;;;;;;21.78;98.39;98788.88;5065008;28;20067;-43
2023/08/03 03:39:40;;;;;;;18.38;12.90;;;;;;;21.78;97.48;98784.44;5048744;28;20295;-45
2023/08/03 03:42:11;;;;;;;15.70;12.40;;;;;;;21.65;96.92;98756.66;5067391;28;20050;-45
2023/08/03 03:44:38;;;;;;;14.65;11.38;;;;;;;21.88;96.08;98784.38;5084431;28;20044;-44
2023/08/03 03:47:05;;;;;;;25.80;14.10;;;;;;;21.95;94.90;98778.41;5047545;28;20041;-44
2023/08/03 03:49:37;;;;;;;16.88;11.20;;;;;;;22.06;94.04;98789.78;5060740;28;20040;-46
2023/08/03 03:52:03;;;;;;;16.25;13.00;;;;;;;22.14;93.26;98788.06;5069283;28;20056;-43
2023/08/03 03:54:32;;;;;;;;;;;;;;;22.20;92.38;98795.41;5050891;28;20047;-44
2023/08/03 03:57:00;;;;;;;17.67;11.32;;;;;;;22.18;92.14;98788.63;5056028;28;20293;-49
2023/08/03 03:59:30;;;;;;;20.20;12.40;;;;;;;22.21;91.56;98796.25;5062349;28;20050;-48
2023/08/03 04:01:57;;;;;;;15.70;11.18;;;;;;;22.16;90.81;98772.03;5067304;28;20143;-45
2023/08/03 04:04:24;;;;;;;15.98;12.25;;;;;;;22.30;89.87;98790.06;5083006;28;20041;-46
2023/08/03 04:06:50;;;;;;;15.77;10.68;;;;;;;22.31;89.70;98779.31;5070270;28;20114;-48
2023/08/03 04:09:16;;;;;;;12.93;10.90;;;;;;;22.34;89.00;98797.59;5066755;28;20058;-46
2023/08/03 04:11:42;;;;;;;14.02;11.00;;;;;;;22.16;88.37;98769.38;5068596;28;20090;-44
2023/08/03 04:14:08;;;;;;;14.93;10.90;;;;;;;22.30;87.84;98796.19;5066341;28;20036;-43
2023/08/03 04:16:34;;;;;;;15.55;11.05;;;;;;;22.28;87.23;98792.88;5060988;28;20041;-44
2023/08/03 04:19:01;;;;;;;14.40;10.23;;;;;;;22.19;86.64;98777.84;5064391;28;20127;-45
2023/08/03 04:21:27;;;;;;;13.25;10.15;;;;;;;22.38;86.50;98798.94;5051125;28;20120;-45
2023/08/03 04:23:55;;;;;;;13.07;10.37;;;;;;;22.45;86.24;98790.41;5048908;28;20048;-45
2023/08/03 04:26:22;;;;;;;15.07;10.68;;;;;;;22.53;86.17;98796.63;5070083;28;20098;-44
2023/08/03 04:28:48;;;;;;;15.50;11.07;;;;;;;22.59;85.56;98784.59;5066618;28;20452;-47
2023/08/03 04:31:14;;;;;;;15.77;10.45;;;;;;;22.63;84.87;98792.09;5050861;28;20079;-44
2023/08/03 04:33:45;;;;;;;15.05;10.18;;;;;;;22.69;84.80;98788.84;5034821;28;20745;-49
2023/08/03 04:36:11;;;;;;;13.63;10.05;;;;;;;22.74;84.24;98791.06;5069175;28;20056;-45
2023/08/03 04:38:39;;;;;;;11.70;10.18;;;;;;;22.79;84.04;98786.97;5059824;28;20426;-48
2023/08/03 04:41:06;;;;;;;13.70;10.15;;;;;;;22.74;83.75;98772.50;5087785;28;20470;-45
2023/08/03 04:43:42;;;;;;;15.95;9.85;;;;;;;22.88;83.35;98793.16;5082662;28;20036;-44
2023/08/03 04:46:08;;;;;;;15.32;9.90;;;;;;;22.94;82.74;98799.69;5066593;28;20139;-43
2023/08/03 04:48:34;;;;;;;15.13;9.45;;;;;;;22.95;82.00;98798.72;5075909;28;20143;-45
2023/08/03 04:51:03;;;;;;;;;;;;;;;22.99;81.38;98798.25;5051850;28;20057;-45
2023/08/03 04:53:29;;;;;;;11.25;8.05;;;;;;;22.97;80.88;98802.88;5066923;28;19927;-45
2023/08/03 04:55:55;;;;;;;9.07;7.53;;;;;;;22.98;79.93;98790.44;5066962;28;20485;-45
2023/08/03 04:58:21;;;;;;;13.13;7.72;;;;;;;23.09;79.22;98799.00;5059928;28;20045;-46
2023/08/03 05:00:49;;;;;;;14.40;7.72;;;;;;;23.14;78.79;98787.91;5061699;28;20032;-45
2023/08/03 05:03:15;;;;;;;12.18;7.90;;;;;;;23.29;78.37;98785.56;5049517;28;20083;-42
2023/08/03 05:05:42;;;;;;;11.57;7.75;;;;;;;23.36;77.64;98782.13;5068050;28;20049;-46
2023/08/03 05:08:10;;;;;;;10.88;7.72;;;;;;;23.43;76.94;98788.47;5067448;28;20048;-43
2023/08/03 05:10:36;;;;;;;11.18;7.25;;;;;;;23.50;76.43;98784.22;5065516;28;20035;-46
2023/08/03 05:13:02;;;;;;;12.30;7.65;;;;;;;23.58;75.94;98786.94;5047113;28;20049;-46
2023/08/03 05:15:29;;;;;;;12.32;7.63;;;;;;;23.51;75.52;98767.31;5048548;28;20036;-44
2023/08/03 05:17:55;;;;;;;18.58;7.70;;;;;;;23.72;75.26;98777.56;5046724;28;20228;-48
2023/08/03 05:20:20;;;;;;;9.15;6.13;;;;;;;23.83;74.82;98776.47;5048411;28;20461;-44
2023/08/03 05:22:46;;;;;;;9.02;6.68;;;;;;;23.94;74.52;98779.66;5063862;28;20040;-44
2023/08/03 05:25:12;;;;;;;9.57;6.55;;;;;;;24.01;74.26;98778.06;5067361;28;20423;-48
2023/08/03 05:27:39;;;;;;;8.98;6.30;;;;;;;24.10;74.04;98762.97;5073348;28;20123;-45
2023/08/03 05:30:06;;;;;;;9.50;7.35;;;;;;;24.30;73.83;98774.19;5069575;28;20040;-45
2023/08/03 05:32:33;;;;;;;9.65;6.55;;;;;;;24.38;73.34;98777.72;5067247;28;20086;-43
2023/08/03 05:34:59;;;;;;;9.73;6.78;;;;;;;24.41;72.48;98773.88;5068315;28;20423;-45
2023/08/03 05:37:25;;;;;;;9.82;6.47;;;;;;;24.51;71.99;98773.72;5068215;28;20040;-44
2023/08/03 05:39:51;;;;;;;10.73;7.60;;;;;;;24.68;71.48;98773.59;5080983;28;20086;-44
2023/08/03 05:42:18;;;;;;;10.02;7.50;;;;;;;24.59;70.98;98731.25;5077289;28;20041;-46
2023/08/03 05:44:44;;;;;;;9.18;6.45;;;;;;;24.92;70.69;98770.16;5062490;28;20045;-46
2023/08/03 05:47:11;;;;;;;12.57;6.90;;;;;;;24.80;70.39;98732.44;5045990;28;20539;-45
2023/08/03 05:49:37;;;;;;;11.70;8.27;;;;;;;25.23;70.23;98771.16;5080173;28;20097;-45
2023/08/03 05:52:04;;;;;;;9.57;6.18;;;;;;;25.37;70.26;98774.97;5075886;28;20052;-46
2023/08/03 05:54:30;;;;;;;8.25;7.00;;;;;;;25.45;69.13;98764.31;5068940;28;20048;-46
2023/08/03 05:56:56;;;;;;;10.50;6.68;;;;;;;25.26;67.30;98728.25;5059658;28;20444;-44
2023/08/03 05:59:23;;;;;;;11.00;6.07;;;;;;;25.54;66.88;98768.59;5057737;28;20113;-44
2023/08/03 06:01:50;;;;;;;13.82;5.70;;;;;;;25.56;65.72;98774.63;5052595;28;20039;-48
2023/08/03 06:04:17;;;;;;;10.45;6.18;;;;;;;25.73;65.73;98775.44;5062242;28;20121;-45
2023/08/03 06:06:44;;;;;;;14.90;7.45;;;;;;;25.90;65.71;98774.38;5057944;28;20044;-45
2023/08/03 06:09:12;;;;;;;16.05;7.28;;;;;;;26.03;65.53;98766.66;5074122;28;20037;-46
2023/08/03 06:11:39;;;;;;;9.32;6.78;;;;;;;26.23;65.14;98763.59;5053510;28;20040;-44
2023/08/03 06:14:05;;;;;;;16.67;7.85;;;;;;;26.32;65.04;98758.06;5070233;28;20385;-46
2023/08/03 06:16:32;;;;;;;18.42;7.18;;;;;;;26.56;64.05;98759.75;5046072;28;20601;-47
2023/08/03 06:18:59;;;;;;;12.80;7.25;;;;;;;26.78;63.50;98771.44;5068426;28;20044;-45
2023/08/03 06:21:27;;;;;;;16.98;8.02;;;;;;;26.94;62.36;98774.00;5068941;28;20040;-48
2023/08/03 06:23:57;;;;;;;10.93;7.32;;;;;;;27.15;61.52;98778.69;5071510;28;20040;-46
2023/08/03 06:26:24;;;;;;;13.43;7.35;;;;;;;27.30;61.33;98766.19;5069553;28;20048;-44
2023/08/03 06:28:53;;;;;;;14.23;7.47;;;;;;;27.55;60.78;98775.66;5069496;28;20040;-45
2023/08/03 06:31:23;;;;;;;13.70;7.60;;;;;;;27.69;59.52;98777.47;5052828;28;20040;-45
2023/08/03 06:33:49;;;;;;;21.27;11.40;;;;;;;28.09;58.73;98780.72;5070499;28;20044;-46
2023/08/03 06:36:25;;;;;;;16.73;7.90;;;;;;;28.89;56.90;98786.00;5068637;28;20093;-45
2023/08/03 06:38:51;;;;;;;11.07;7.22;;;;;;;29.85;54.30;98791.50;5058837;28;20098;-44
2023/08/03 06:41:17;;;;;;;12.90;6.97;;;;;;;30.70;52.36;98784.91;5070538;28;20085;-45
2023/08/03 06:43:44;;;;;;;15.52;7.05;;;;;;;31.51;50.11;98777.53;5069663;28;20037;-46
2023/08/03 06:46:10;;;;;;;10.60;6.40;;;;;;;31.89;48.24;98772.31;5050498;28;20190;-46
2023/08/03 06:48:36;;;;;;;10.73;6.22;;;;;;;32.79;46.82;98791.00;5068362;28;20036;-46
2023/08/03 06:51:03;;;;;;;9.80;6.65;;;;;;;33.68;44.50;98789.94;5046281;28;20044;-45
2023/08/03 06:53:30;;;;;;;11.93;6.50;;;;;;;34.59;43.16;98789.91;5075393;28;20069;-44
2023/08/03 06:55:56;;;;;;;8.15;5.97;;;;;;;33.88;42.05;98792.41;5064551;28;20420;-46
2023/08/03 06:58:22;;;;;;;11.52;6.95;;;;;;;33.37;42.18;98782.72;5066713;28;20040;-47
2023/08/03 07:00:48;;;;;;;9.15;6.25;;;;;;;34.39;40.71;98781.25;5069905;28;20069;-45
2023/08/03 07:03:14;;;;;;;11.48;6.07;;;;;;;35.79;38.69;98779.72;5066447;28;20040;-46
2023/08/03 07:05:41;;;;;;;10.45;5.20;;;;;;;37.06;36.78;98774.94;5062866;28;20063;-45
2023/08/03 07:08:07;;;;;;;12.05;4.95;;;;;;;38.15;34.30;98784.25;5067049;28;20079;-48
2023/08/03 07:10:34;;;;;;;8.40;5.30;;;;;;;39.01;32.97;98778.09;5067048;28;20040;-49
2023/08/03 07:13:01;;;;;;;9.45;5.70;;;;;;;40.34;31.59;98774.09;5067707;28;20453;-50
2023/08/03 07:15:27;;;;;;;7.95;5.18;;;;;;;40.72;30.30;98774.78;5069833;28;20131;-48
2023/08/03 07:17:53;;;;;;;7.95;4.35;;;;;;;40.82;30.21;98778.34;5067262;28;20454;-48
2023/08/03 07:20:19;;;;;;;9.23;5.28;;;;;;;39.63;30.27;98776.44;5067716;28;20507;-48
2023/08/03 07:22:45;;;;;;;9.88;5.15;;;;;;;37.43;32.23;98763.59;5069464;28;20051;-46
2023/08/03 07:25:11;;;;;;;8.90;4.65;;;;;;;35.89;34.18;98754.78;5067544;28;20044;-44
2023/08/03 07:27:40;;;;;;;8.57;4.60;;;;;;;35.49;35.43;98770.88;5069358;28;20033;-45
2023/08/03 07:30:08;;;;;;;9.65;4.80;;;;;;;34.87;36.10;98778.50;5069276;28;20063;-47
2023/08/03 07:32:34;;;;;;;13.10;5.20;;;;;;;34.13;37.30;98755.38;5051432;28;20040;-47
2023/08/03 07:35:01;;;;;;;6.68;4.25;;;;;;;33.94;37.32;98767.25;5068506;28;20032;-47
2023/08/03 07:37:31;;;;;;;8.15;4.90;;;;;;;33.83;37.90;98762.59;5068443;28;20109;-46
2023/08/03 07:39:57;;;;;;;8.07;4.30;;;;;;;33.38;38.58;98760.13;5067707;28;20072;-47
2023/08/03 07:42:23;;;;;;;6.55;4.55;;;;;;;33.23;38.65;98773.13;5066944;28;20067;-46
2023/08/03 07:44:53;;;;;;;6.32;4.45;;;;;;;32.73;39.97;98773.03;5050271;28;20099;-45
2023/08/03 07:47:20;;;;;;;5.50;4.55;;;;;;;32.16;40.37;98765.84;5067898;28;20051;-44
2023/08/03 07:49:47;;;;;;;10.45;4.65;;;;;;;32.10;41.26;98760.44;5061908;28;20044;-44
2023/08/03 07:52:12;;;;;;;9.40;4.75;;;;;;;31.93;41.31;98765.47;5068573;28;20198;-45
2023/08/03 07:54:38;;;;;;;6.45;4.88;;;;;;;31.77;42.09;98744.44;5065334;28;20051;-45
2023/08/03 07:57:05;;;;;;;10.85;5.60;;;;;;;32.28;41.16;98749.88;5069357;28;20043;-45
2023/08/03 07:59:31;;;;;;;7.07;4.85;;;;;;;32.34;41.38;98770.53;5068467;28;20059;-44
2023/08/03 08:01:59;;;;;;;9.52;5.13;;;;;;;33.44;39.89;98766.50;5078778;28;20036;-44
2023/08/03 08:04:25;;;;;;;7.53;5.13;;;;;;;34.46;38.35;98763.09;5069604;28;20040;-44
2023/08/03 08:06:51;;;;;;;8.68;5.15;;;;;;;36.16;36.23;98774.88;5067087;28;20065;-46
2023/08/03 08:09:17;;;;;;;6.75;5.30;;;;;;;37.77;34.09;98761.69;5060770;28;20653;-44
2023/08/03 08:11:43;;;;;;;9.32;5.38;;;;;;;38.90;31.86;98785.34;5067591;28;20067;-47
2023/08/03 08:14:09;;;;;;;8.57;5.07;;;;;;;38.37;31.93;98742.63;5066450;28;20036;-47
2023/08/03 08:16:35;;;;;;;10.63;5.07;;;;;;;39.31;31.19;98751.97;5067743;28;20152;-46
2023/08/03 08:19:01;;;;;;;7.07;5.22;;;;;;;40.77;29.63;98763.88;5061577;28;20175;-49
2023/08/03 08:21:27;;;;;;;6.25;5.47;;;;;;;41.42;28.11;98769.34;5058211;28;20063;-45
2023/08/03 08:23:53;;;;;;;7.25;5.63;;;;;;;40.70;28.25;98763.31;5059047;28;20126;-44
2023/08/03 08:26:19;;;;;;;9.80;4.80;;;;;;;40.13;29.37;98764.19;5069822;28;20135;-44
2023/08/03 08:28:46;;;;;;;9.38;5.90;;;;;;;40.06;29.30;98772.59;5068146;28;20040;-46
2023/08/03 08:31:13;;;;;;;10.73;5.55;;;;;;;39.45;29.88;98763.28;5065275;28;20117;-46
2023/08/03 08:33:39;;;;;;;10.23;5.53;;;;;;;39.94;29.65;98743.97;5067386;28;20358;-44
2023/08/03 08:36:05;;;;;;;8.85;5.50;;;;;;;40.01;29.06;98766.31;5067668;28;20067;-48
2023/08/03 08:38:31;;;;;;;9.32;5.78;;;;;;;39.34;29.70;98731.63;5068553;28;20062;-47
2023/08/03 08:41:01;;;;;;;8.25;5.25;;;;;;;40.16;29.78;98758.19;5067711;28;20131;-48
2023/08/03 08:43:27;;;;;;;5.35;4.80;;;;;;;40.93;28.58;98755.41;5064408;28;20127;-46
2023/08/03 08:45:54;;;;;;;9.77;5.00;;;;;;;39.62;29.87;98739.41;5065800;28;20687;-44
2023/08/03 08:48:20;;;;;;;8.15;5.03;;;;;;;37.59;32.57;98763.63;5047110;28;20509;-44
2023/08/03 08:50:47;;;;;;;7.20;4.88;;;;;;;35.85;34.65;98754.44;5063694;28;20053;-45
2023/08/03 08:53:16;;;;;;;7.60;4.88;;;;;;;34.84;36.70;98760.09;5038318;28;20504;-49
2023/08/03 08:55:42;;;;;;;8.90;4.93;;;;;;;34.47;37.72;98740.44;5068475;28;20086;-44
2023/08/03 08:58:09;;;;;;;7.30;4.72;;;;;;;34.02;38.03;98759.66;5067175;28;20094;-47
2023/08/03 09:00:46;;;;;;;11.65;5.15;;;;;;;33.05;39.66;98757.69;5068390;28;20044;-47
2023/08/03 09:03:14;;;;;;;6.30;4.85;;;;;;;32.54;40.48;98748.91;5074229;28;20427;-47
2023/08/03 09:05:39;;;;;;;10.05;4.93;;;;;;;32.24;41.10;98751.34;5087284;28;20511;-45
2023/08/03 09:08:07;;;;;;;9.43;5.50;;;;;;;34.58;37.35;98736.13;5086851;28;20123;-46
2023/08/03 09:10:54;;;;;;;7.72;4.18;;;;;;;35.96;35.03;98753.56;5088738;28;20147;-44
2023/08/03 09:13:35;;;;;;;7.07;4.27;;;;;;;35.54;35.43;98749.38;5087163;28;20032;-47
2023/08/03 09:16:02;;;;;;;8.10;4.50;;;;;;;36.74;33.75;98763.84;5054218;28;20132;-43
2023/08/03 09:18:30;;;;;;;9.55;4.55;;;;;;;37.74;31.66;98741.28;5087431;28;20040;-48
2023/08/03 09:21:17;;;;;;;5.13;4.63;;;;;;;38.31;30.42;98752.66;5074689;28;20036;-47
2023/08/03 09:23:43;;;;;;;8.73;4.38;;;;;;;39.00;29.67;98752.81;5090910;28;20512;-45
2023/08/03 09:26:11;;;;;;;5.65;4.38;;;;;;;39.01;29.14;98715.56;5091230;28;20488;-45
2023/08/03 09:28:41;;;;;;;6.32;4.50;;;;;;;40.06;28.60;98748.09;5092573;28;20452;-47
2023/08/03 09:31:08;;;;;;;6.97;4.57;;;;;;;39.86;27.88;98761.63;5091267;28;20044;-44
2023/08/03 09:33:35;;;;;;;4.93;4.45;;;;;;;38.05;29.94;98746.06;5086842;28;20572;-46
2023/08/03 09:36:10;;;;;;;5.35;4.72;;;;;;;39.09;29.27;98742.31;5072281;28;20048;-46
2023/08/03 09:38:38;;;;;;;8.30;4.47;;;;;;;40.14;27.84;98742.16;5071695;28;20522;-48
2023/08/03 09:41:04;;;;;;;5.72;4.68;;;;;;;39.91;28.17;98739.88;5073048;28;20062;-45
2023/08/03 09:43:31;;;;;;;5.80;4.50;;;;;;;37.63;30.80;98736.84;5087726;28;20044;-45
2023/08/03 09:45:58;;;;;;;8.30;4.97;;;;;;;38.10;30.92;98740.72;5068770;28;20036;-45
2023/08/03 09:48:25;;;;;;;6.50;4.67;;;;;;;39.76;29.08;98740.63;5070590;28;20058;-46
2023/08/03 09:50:56;;;;;;;8.88;4.70;;;;;;;40.47;27.63;98751.78;5070316;28;20841;-47
2023/08/03 09:53:30;;;;;;;7.05;4.70;;;;;;;40.90;26.50;98719.69;5087317;28;20067;-48
2023/08/03 09:56:02;;;;;;;8.10;4.57;;;;;;;40.62;26.92;98751.03;5105460;28;20043;-50
2023/08/03 09:58:55;;;;;;;5.25;4.85;;;;;;;40.70;26.47;98755.13;5090637;28;20067;-47
2023/08/03 10:01:25;;;;;;;4.75;4.25;;;;;;;42.04;25.77;98756.38;5080967;28;20055;-46
2023/08/03 10:04:00;;;;;;;7.85;4.38;;;;;;;41.96;25.59;98732.41;5089357;28;20594;-45
2023/08/03 10:06:30;;;;;;;5.82;5.32;;;;;;;41.28;25.99;98751.91;5070063;28;20063;-50
2023/08/03 10:09:02;;;;;;;5.05;4.28;;;;;;;41.76;25.27;98755.13;5054501;28;20033;-47
2023/08/03 10:11:33;;;;;;;5.00;4.50;;;;;;;40.08;26.63;98745.94;5069438;28;20475;-46
2023/08/03 10:14:03;;;;;;;5.82;4.30;;;;;;;38.74;28.87;98735.44;5055203;28;20043;-45
2023/08/03 10:16:32;;;;;;;8.23;3.80;;;;;;;37.60;30.49;98740.03;5090365;28;20226;-47
2023/08/03 10:18:58;;;;;;;6.10;4.63;;;;;;;38.82;29.40;98713.22;5090020;28;20036;-49
2023/08/03 10:21:24;;;;;;;5.72;4.30;;;;;;;40.07;27.95;98744.28;5091549;28;20043;-47
2023/08/03 10:24:16;;;;;;;9.93;4.88;;;;;;;39.19;29.63;98750.53;5090936;28;20090;-46
2023/08/03 10:26:43;;;;;;;7.63;4.65;;;;;;;39.57;29.09;98744.81;5073286;28;20032;-46
2023/08/03 10:29:09;;;;;;;6.25;4.72;;;;;;;41.79;26.98;98747.16;5090243;28;20063;-45
2023/08/03 10:31:55;;;;;;;6.47;4.60;;;;;;;43.35;25.60;98724.63;5091272;28;20121;-49
2023/08/03 10:34:28;;;;;;;7.63;5.20;;;;;;;43.47;24.15;98750.50;5090251;28;20112;-46
2023/08/03 10:36:55;;;;;;;4.85;4.18;;;;;;;40.91;26.17;98743.16;5051160;28;20040;-46
2023/08/03 10:39:42;;;;;;;5.95;4.40;;;;;;;38.36;28.80;98732.88;5053529;28;20113;-48
2023/08/03 10:42:27;;;;;;;7.80;4.80;;;;;;;37.53;29.79;98731.22;5069593;28;20528;-47
2023/08/03 10:44:55;;;;;;;5.30;4.80;;;;;;;36.95;31.18;98729.78;5056013;28;20056;-46
2023/08/03 10:47:29;;;;;;;4.85;4.38;;;;;;;37.92;29.62;98729.31;5072824;28;20120;-44
2023/08/03 10:49:58;;;;;;;5.70;4.90;;;;;;;36.95;31.18;98724.34;5089721;28;20044;-45
2023/08/03 10:52:29;;;;;;;6.00;5.25;;;;;;;37.82;30.32;98732.72;5072641;28;20060;-46
2023/08/03 10:54:57;;;;;;;9.55;4.50;;;;;;;39.98;27.99;98732.28;5087948;28;20127;-45
2023/08/03 10:57:28;;;;;;;6.05;4.75;;;;;;;39.08;28.68;98727.88;5089709;28;20098;-46
2023/08/03 10:59:59;;;;;;;8.55;4.97;;;;;;;39.85;27.88;98738.19;5089207;28;20043;-48
2023/08/03 11:02:31;;;;;;;8.90;5.35;;;;;;;39.82;26.82;98694.38;5090106;28;20159;-48
2023/08/03 11:05:06;;;;;;;6.20;5.50;;;;;;;41.06;25.90;98726.81;5072598;28;20466;-45
2023/08/03 11:07:36;;;;;;;7.05;4.68;;;;;;;40.04;27.21;98720.28;5069235;28;20036;-45
2023/08/03 11:10:11;;;;;;;5.82;4.55;;;;;;;38.01;29.51;98714.25;5070054;28;20515;-46
2023/08/03 11:12:38;;;;;;;5.78;4.60;;;;;;;36.53;31.60;98718.44;5068864;28;20028;-44
2023/08/03 11:15:05;;;;;;;7.55;4.80;;;;;;;35.66;32.63;98709.59;5069105;28;20500;-45
2023/08/03 11:17:35;;;;;;;5.35;4.65;;;;;;;35.04;33.37;98703.03;5069088;28;20130;-45
2023/08/03 11:20:03;;;;;;;7.57;5.63;;;;;;;34.25;34.30;98699.63;5069352;28;20072;-44
2023/08/03 11:22:31;;;;;;;13.43;4.95;;;;;;;34.50;34.18;98693.25;5079308;28;20071;-47
2023/08/03 11:25:04;;;;;;;7.82;4.90;;;;;;;34.14;35.15;98691.44;5070852;28;20044;-45
2023/08/03 11:27:32;;;;;;;5.65;5.07;;;;;;;33.31;36.56;98675.00;5032695;28;20083;-47